createdAt,value
2018-09-01T00:00:23.936Z,15.9
2018-09-01T00:01:13.989Z,15.9
2018-09-01T00:02:03.798Z,15.9
2018-09-01T00:02:53.808Z,15.9
2018-09-01T00:03:44.206Z,15.9
2018-09-01T00:04:34.259Z,15.9
2018-09-01T00:05:24.313Z,15.9
2018-09-01T00:06:14.128Z,15.9
2018-09-01T00:07:04.156Z,15.8
2018-09-01T00:07:54.228Z,15.8
2018-09-01T00:08:44.568Z,15.8
2018-09-01T00:09:34.641Z,15.8
2018-09-01T00:10:25.033Z,15.8
2018-09-01T00:11:15.040Z,15.8
2018-09-01T00:12:04.827Z,15.8
2018-09-01T00:31:28.967Z,15.4
2018-09-01T00:32:19.004Z,15.4
2018-09-01T00:33:08.799Z,15.4
2018-09-01T00:33:59.127Z,15.3
2018-09-01T00:34:49.209Z,15.3
2018-09-01T00:35:38.975Z,15.3
2018-09-01T00:36:29.036Z,15.3
2018-09-01T00:37:19.177Z,15.3
2018-09-01T00:38:09.159Z,15.3
2018-09-01T00:38:58.947Z,15.3
2018-09-01T00:39:49.604Z,15.2
2018-09-01T00:40:39.636Z,15.2
2018-09-01T00:41:29.958Z,15.2
2018-09-01T00:42:19.484Z,15.2
2018-09-01T00:43:09.809Z,15.2
2018-09-01T00:43:59.904Z,15.2
2018-09-01T00:44:49.677Z,15.1
2018-09-01T00:45:40.308Z,15.1
2018-09-01T00:46:30.090Z,15.1
2018-09-01T00:47:19.882Z,15.1
2018-09-01T00:48:10.208Z,15.1
2018-09-01T00:49:00.003Z,15.1
2018-09-01T00:49:50.348Z,15.1
2018-09-01T00:50:40.421Z,15
2018-09-01T00:51:30.198Z,15
2018-09-01T00:52:20.277Z,15
2018-09-01T00:53:10.641Z,15
2018-09-01T00:54:00.703Z,14.9
2018-09-01T00:54:50.746Z,14.9
2018-09-01T00:55:40.823Z,14.9
2018-09-01T00:56:30.610Z,14.9
2018-09-01T00:57:20.927Z,14.9
2018-09-01T00:58:10.708Z,14.9
2018-09-01T00:59:01.068Z,14.9
2018-09-01T00:59:50.561Z,14.9
2018-09-01T01:00:40.905Z,14.9
2018-09-01T01:01:31.248Z,14.8
2018-09-01T01:02:21.324Z,14.9
2018-09-01T01:03:11.623Z,14.8
2018-09-01T01:04:01.165Z,14.8
2018-09-01T01:04:51.532Z,14.8
2018-09-01T01:05:41.309Z,14.8
2018-09-01T01:06:31.647Z,14.8
2018-09-01T01:07:21.422Z,14.8
2018-09-01T01:08:11.770Z,14.8
2018-09-01T01:09:01.834Z,14.8
2018-09-01T01:09:51.904Z,14.8
2018-09-01T01:10:41.702Z,14.8
2018-09-01T01:11:32.034Z,14.8
2018-09-01T01:12:22.111Z,14.8
2018-09-01T01:13:12.454Z,14.7
2018-09-01T01:14:01.956Z,14.7
2018-09-01T01:14:52.019Z,14.7
2018-09-01T01:15:42.359Z,14.7
2018-09-01T01:16:32.137Z,14.6
2018-09-01T01:17:22.552Z,14.6
2018-09-01T01:18:12.807Z,14.6
2018-09-01T01:19:02.062Z,14.6
2018-09-01T01:19:52.404Z,14.6
2018-09-01T01:20:42.469Z,14.6
2018-09-01T01:21:32.527Z,14.6
2018-09-01T01:22:22.891Z,14.6
2018-09-01T01:23:12.653Z,14.6
2018-09-01T01:24:03.054Z,14.6
2018-09-01T01:24:53.075Z,14.5
2018-09-01T01:25:43.131Z,14.5
2018-09-01T01:26:33.208Z,14.6
2018-09-01T01:27:23.253Z,14.5
2018-09-01T01:28:13.336Z,14.5
2018-09-01T01:29:03.401Z,14.5
2018-09-01T01:29:53.172Z,14.4
2018-09-01T01:30:43.517Z,14.4
2018-09-01T01:31:33.574Z,14.4
2018-09-01T01:32:23.640Z,14.4
2018-09-01T01:33:13.701Z,14.4
2018-09-01T01:34:03.483Z,14.4
2018-09-01T01:34:53.560Z,14.4
2018-09-01T01:35:43.913Z,14.4
2018-09-01T01:36:33.684Z,14.4
2018-09-01T01:37:24.046Z,14.3
2018-09-01T01:38:14.093Z,14.3
2018-09-01T01:39:04.409Z,14.3
2018-09-01T01:39:54.232Z,14.3
2018-09-01T01:40:44.031Z,14.3
2018-09-01T01:41:34.087Z,14.3
2018-09-01T01:42:24.148Z,14.3
2018-09-01T01:43:14.200Z,14.3
2018-09-01T01:44:04.549Z,14.3
2018-09-01T01:44:54.054Z,14.3
2018-09-01T01:45:44.689Z,14.2
2018-09-01T01:46:34.744Z,14.2
2018-09-01T01:47:24.833Z,14.2
2018-09-01T01:48:14.850Z,14.2
2018-09-01T01:49:04.968Z,14.2
2018-09-01T01:49:55.020Z,14.1
2018-09-01T01:50:45.057Z,14.2
2018-09-01T01:51:35.125Z,14.1
2018-09-01T01:52:24.642Z,14.1
2018-09-01T01:53:15.272Z,14.1
2018-09-01T01:54:05.060Z,14.1
2018-09-01T01:54:55.400Z,14.1
2018-09-01T01:55:45.479Z,14.1
2018-09-01T01:56:35.245Z,14.1
2018-09-01T01:57:25.600Z,14.1
2018-09-01T01:58:15.104Z,14.1
2018-09-01T01:59:05.428Z,14.1
2018-09-01T01:59:55.770Z,14
2018-09-01T02:00:45.835Z,14
2018-09-01T02:01:35.906Z,14
2018-09-01T02:02:25.692Z,14
2018-09-01T02:03:16.070Z,13.9
2018-09-01T02:04:06.134Z,13.9
2018-09-01T02:04:55.596Z,13.9
2018-09-01T02:05:45.977Z,13.9
2018-09-01T02:06:36.303Z,13.9
2018-09-01T02:07:26.366Z,13.9
2018-09-01T02:08:16.421Z,13.9
2018-09-01T02:09:06.209Z,13.9
2018-09-01T02:09:56.564Z,13.9
2018-09-01T02:10:46.611Z,13.8
2018-09-01T02:11:36.957Z,13.8
2018-09-01T02:12:26.758Z,13.8
2018-09-01T02:13:16.528Z,13.8
2018-09-01T02:14:06.886Z,13.8
2018-09-01T02:14:56.922Z,13.8
2018-09-01T02:15:46.730Z,13.8
2018-09-01T02:16:36.520Z,13.8
2018-09-01T02:17:26.848Z,13.7
2018-09-01T02:18:16.930Z,13.7
2018-09-01T02:19:07.260Z,13.7
2018-09-01T02:19:57.042Z,13.7
2018-09-01T02:20:47.134Z,13.7
2018-09-01T02:21:37.710Z,13.7
2018-09-01T02:22:27.235Z,13.6
2018-09-01T02:23:17.594Z,13.6
2018-09-01T02:24:07.658Z,13.6
2018-09-01T02:24:57.423Z,13.6
2018-09-01T02:25:47.797Z,13.6
2018-09-01T02:26:37.850Z,13.6
2018-09-01T02:27:27.631Z,13.6
2018-09-01T02:28:18.044Z,13.6
2018-09-01T02:29:07.748Z,13.6
2018-09-01T02:29:58.389Z,13.6
2018-09-01T02:30:47.877Z,13.6
2018-09-01T02:31:38.249Z,13.6
2018-09-01T02:32:28.025Z,13.5
2018-09-01T02:33:18.082Z,13.5
2018-09-01T02:34:08.166Z,13.5
2018-09-01T02:34:58.461Z,13.5
2018-09-01T02:35:48.267Z,13.5
2018-09-01T02:36:38.367Z,13.4
2018-09-01T02:37:28.692Z,13.4
2018-09-01T02:38:18.485Z,13.4
2018-09-01T02:39:08.804Z,13.4
2018-09-01T02:39:58.880Z,13.4
2018-09-01T02:40:48.670Z,13.4
2018-09-01T02:41:38.447Z,13.4
2018-09-01T02:42:28.798Z,13.4
2018-09-01T02:43:19.148Z,13.4
2018-09-01T02:44:08.928Z,13.4
2018-09-01T02:44:59.548Z,13.3
2018-09-01T02:45:49.081Z,13.3
2018-09-01T02:46:39.408Z,13.3
2018-09-01T02:47:28.883Z,13.3
2018-09-01T02:48:19.248Z,13.3
2018-09-01T02:49:09.299Z,13.3
2018-09-01T02:49:59.659Z,13.3
2018-09-01T02:50:49.156Z,13.3
2018-09-01T02:51:39.766Z,13.2
2018-09-01T02:52:29.844Z,13.2
2018-09-01T02:53:19.934Z,13.2
2018-09-01T02:54:09.968Z,13.2
2018-09-01T02:54:59.755Z,13.2
2018-09-01T02:55:50.112Z,13.2
2018-09-01T02:56:39.878Z,13.2
2018-09-01T02:57:30.231Z,13.2
2018-09-01T02:58:20.000Z,13.1
2018-09-01T02:59:10.370Z,13.1
2018-09-01T03:00:00.432Z,13.1
2018-09-01T03:00:50.525Z,13.1
2018-09-01T03:01:40.553Z,13.1
2018-09-01T03:02:30.619Z,13.1
2018-09-01T03:03:20.123Z,13.1
2018-09-01T03:04:10.732Z,13.1
2018-09-01T03:05:00.797Z,13.1
2018-09-01T03:05:50.828Z,13.1
2018-09-01T03:06:40.945Z,13.1
2018-09-01T03:07:30.435Z,13.1
2018-09-01T03:08:21.077Z,13.1
2018-09-01T03:09:11.130Z,13
2018-09-01T03:10:01.184Z,13
2018-09-01T03:10:51.514Z,13
2018-09-01T03:11:41.335Z,13
2018-09-01T03:12:31.632Z,13
2018-09-01T03:13:21.447Z,13
2018-09-01T03:14:11.511Z,13
2018-09-01T03:15:01.311Z,13
2018-09-01T03:15:51.637Z,12.9
2018-09-01T03:16:41.718Z,12.9
2018-09-01T03:17:31.792Z,12.9
2018-09-01T03:18:21.832Z,12.9
2018-09-01T03:19:11.889Z,12.9
2018-09-01T03:20:01.975Z,12.9
2018-09-01T03:20:52.031Z,12.9
2018-09-01T03:21:41.804Z,12.9
2018-09-01T03:22:31.916Z,12.9
2018-09-01T03:23:22.217Z,12.9
2018-09-01T03:24:12.002Z,12.9
2018-09-01T03:25:02.365Z,12.9
2018-09-01T03:25:52.452Z,12.9
2018-09-01T03:26:42.200Z,12.9
2018-09-01T03:27:32.588Z,12.9
2018-09-01T03:28:22.606Z,12.9
2018-09-01T03:29:12.401Z,12.8
2018-09-01T03:30:02.506Z,12.8
2018-09-01T03:30:52.801Z,12.8
2018-09-01T03:31:42.871Z,12.8
2018-09-01T03:32:32.659Z,12.8
2018-09-01T03:33:22.990Z,12.8
2018-09-01T03:34:13.088Z,12.8
2018-09-01T03:35:03.153Z,12.8
2018-09-01T03:35:53.183Z,12.8
2018-09-01T03:36:42.965Z,12.8
2018-09-01T03:37:33.331Z,12.8
2018-09-01T03:38:23.393Z,12.8
2018-09-01T03:39:13.183Z,12.7
2018-09-01T03:40:03.538Z,12.7
2018-09-01T03:40:53.283Z,12.7
2018-09-01T03:41:43.652Z,12.7
2018-09-01T03:42:33.410Z,12.7
2018-09-01T03:43:23.475Z,12.7
2018-09-01T03:44:13.546Z,12.7
2018-09-01T03:45:03.888Z,12.7
2018-09-01T03:45:53.670Z,12.7
2018-09-01T03:46:44.016Z,12.6
2018-09-01T03:47:34.105Z,12.6
2018-09-01T03:48:23.857Z,12.6
2018-09-01T03:49:14.220Z,12.6
2018-09-01T03:50:04.321Z,12.6
2018-09-01T03:50:53.788Z,12.6
2018-09-01T03:51:44.422Z,12.6
2018-09-01T03:52:34.487Z,12.6
2018-09-01T03:53:24.562Z,12.6
2018-09-01T03:54:14.320Z,12.6
2018-09-01T03:55:04.397Z,12.6
2018-09-01T03:55:54.454Z,12.6
2018-09-01T03:56:44.877Z,12.6
2018-09-01T03:57:34.578Z,12.5
2018-09-01T03:58:24.915Z,12.6
2018-09-01T03:59:14.432Z,12.6
2018-09-01T04:00:04.784Z,12.5
2018-09-01T04:00:55.122Z,12.5
2018-09-01T04:01:45.175Z,12.5
2018-09-01T04:02:35.281Z,12.5
2018-09-01T04:03:25.313Z,12.5
2018-09-01T04:04:15.105Z,12.5
2018-09-01T04:05:05.456Z,12.4
2018-09-01T04:05:55.506Z,12.4
2018-09-01T04:06:45.566Z,12.4
2018-09-01T04:07:35.626Z,12.4
2018-09-01T04:08:25.726Z,12.4
2018-09-01T04:09:15.782Z,12.5
2018-09-01T04:10:05.815Z,12.4
2018-09-01T04:10:55.684Z,12.4
2018-09-01T04:11:45.930Z,12.4
2018-09-01T04:12:36.009Z,12.4
2018-09-01T04:13:25.809Z,12.4
2018-09-01T04:14:16.136Z,12.4
2018-09-01T04:15:06.208Z,12.4
2018-09-01T04:15:56.263Z,12.4
2018-09-01T04:16:46.055Z,12.4
2018-09-01T04:17:36.660Z,12.4
2018-09-01T04:18:26.457Z,12.4
2018-09-01T04:19:16.550Z,12.4
2018-09-01T04:20:06.603Z,12.4
2018-09-01T04:20:56.384Z,12.4
2018-09-01T04:21:46.701Z,12.4
2018-09-01T04:22:36.801Z,12.4
2018-09-01T04:23:26.861Z,12.4
2018-09-01T04:24:16.919Z,12.4
2018-09-01T04:25:06.970Z,12.4
2018-09-01T04:25:57.059Z,12.4
2018-09-01T04:26:47.411Z,12.4
2018-09-01T04:27:36.891Z,12.4
2018-09-01T04:28:27.493Z,12.4
2018-09-01T04:29:17.354Z,12.4
2018-09-01T04:30:07.379Z,12.4
2018-09-01T04:30:57.427Z,12.4
2018-09-01T04:31:47.735Z,12.5
2018-09-01T04:32:37.550Z,12.5
2018-09-01T04:33:27.618Z,12.5
2018-09-01T04:34:17.693Z,12.5
2018-09-01T04:35:07.754Z,12.5
2018-09-01T04:35:57.525Z,12.5
2018-09-01T04:36:47.876Z,12.5
2018-09-01T04:37:37.940Z,12.6
2018-09-01T04:38:27.718Z,12.6
2018-09-01T04:39:18.070Z,12.6
2018-09-01T04:40:07.846Z,12.6
2018-09-01T04:40:57.931Z,12.6
2018-09-01T04:41:48.289Z,12.6
2018-09-01T04:42:38.292Z,12.6
2018-09-01T05:00:15.270Z,13.9
2018-09-01T05:01:06.261Z,14.1
2018-09-01T05:01:55.684Z,14.3
2018-09-01T05:02:45.784Z,14.4
2018-09-01T05:03:35.526Z,14.6
2018-09-01T05:04:25.942Z,14.7
2018-09-01T05:05:15.375Z,14.9
2018-09-01T05:06:06.266Z,15.1
2018-09-01T05:06:55.799Z,15.2
2018-09-01T05:07:46.138Z,15.4
2018-09-01T05:08:35.918Z,15.6
2018-09-01T05:09:26.293Z,15.8
2018-09-01T05:10:16.300Z,16
2018-09-01T05:11:06.658Z,16.2
2018-09-01T05:11:56.463Z,16.4
2018-09-01T05:12:46.489Z,16.7
2018-09-01T05:13:36.387Z,16.9
2018-09-01T05:14:26.904Z,17.1
2018-09-01T05:15:16.441Z,17.4
2018-09-01T05:16:06.752Z,17.7
2018-09-01T05:16:56.863Z,17.9
2018-09-01T05:17:46.896Z,18.2
2018-09-01T05:18:36.977Z,18.5
2018-09-01T05:19:27.288Z,18.8
2018-09-01T05:20:17.102Z,19.1
2018-09-01T05:21:07.170Z,19.3
2018-09-01T05:21:57.220Z,19.6
2018-09-01T05:22:47.290Z,19.9
2018-09-01T05:23:37.377Z,20.2
2018-09-01T05:24:27.460Z,20.5
2018-09-01T05:25:17.542Z,20.9
2018-09-01T05:26:07.792Z,21.2
2018-09-01T05:26:57.605Z,21.5
2018-09-01T05:27:47.669Z,21.8
2018-09-01T05:28:37.459Z,22.2
2018-09-01T05:29:27.834Z,22.5
2018-09-01T05:30:17.590Z,22.8
2018-09-01T05:31:08.451Z,23.1
2018-09-01T05:31:58.007Z,23.5
2018-09-01T05:32:48.125Z,23.8
2018-09-01T05:33:38.134Z,24.2
2018-09-01T05:34:28.247Z,24.6
2018-09-01T05:35:17.984Z,24.9
2018-09-01T05:36:08.349Z,25.2
2018-09-01T05:36:58.376Z,25.5
2018-09-01T05:37:48.191Z,25.8
2018-09-01T05:38:38.525Z,26.1
2018-09-01T05:39:28.594Z,26.3
2018-09-01T05:40:18.382Z,26.6
2018-09-01T05:41:08.128Z,26.8
2018-09-01T05:41:58.746Z,26.9
2018-09-01T05:42:48.863Z,27.1
2018-09-01T05:43:39.070Z,27.3
2018-09-01T05:44:28.683Z,27.4
2018-09-01T05:45:19.054Z,27.4
2018-09-01T05:46:09.095Z,27.6
2018-09-01T05:46:59.180Z,27.6
2018-09-01T05:47:49.213Z,27.7
2018-09-01T05:48:39.034Z,27.8
2018-09-01T05:50:19.736Z,27.9
2018-09-01T05:51:09.507Z,27.9
2018-09-01T05:51:59.568Z,27.9
2018-09-01T05:52:49.627Z,28
2018-09-01T05:53:39.405Z,28
2018-09-01T05:54:29.763Z,28.1
2018-09-01T05:55:19.244Z,28.1
2018-09-01T05:56:09.604Z,28.1
2018-09-01T05:56:59.918Z,28.1
2018-09-01T05:57:50.006Z,28.1
2018-09-01T05:58:39.779Z,28.1
2018-09-01T05:59:30.389Z,28.1
2018-09-01T06:00:19.901Z,28.1
2018-09-01T06:01:10.001Z,28.1
2018-09-01T06:02:00.381Z,28.1
2018-09-01T06:02:50.654Z,28.1
2018-09-01T06:03:39.639Z,28.1
2018-09-01T06:04:30.235Z,28.1
2018-09-01T06:05:20.557Z,28.1
2018-09-01T06:06:11.143Z,28.1
2018-09-01T06:07:00.747Z,28.1
2018-09-01T06:07:50.746Z,28.1
2018-09-01T06:08:40.862Z,28.1
2018-09-01T06:09:30.919Z,28.1
2018-09-01T06:10:20.678Z,28.2
2018-09-01T06:11:11.026Z,28.3
2018-09-01T06:12:01.085Z,28.5
2018-09-01T06:12:51.415Z,28.7
2018-09-01T06:13:40.957Z,28.9
2018-09-01T06:14:31.280Z,29.2
2018-09-01T06:15:21.081Z,29.5
2018-09-01T06:16:11.402Z,29.8
2018-09-01T06:17:01.507Z,29.9
2018-09-01T06:17:51.709Z,30.1
2018-09-01T06:18:41.624Z,30.3
2018-09-01T06:19:31.679Z,30.4
2018-09-01T06:20:21.454Z,30.5
2018-09-01T06:21:11.509Z,30.6
2018-09-01T06:22:01.863Z,30.8
2018-09-01T06:22:51.943Z,30.9
2018-09-01T06:23:41.986Z,31.1
2018-09-01T06:24:32.076Z,31.3
2018-09-01T06:25:22.157Z,31.4
2018-09-01T06:26:12.197Z,31.8
2018-09-01T06:27:01.999Z,32.2
2018-09-01T06:27:52.053Z,32.6
2018-09-01T06:28:42.098Z,33.2
2018-09-01T06:29:32.471Z,33.8
2018-09-01T06:30:22.550Z,25.4
2018-09-01T06:31:12.578Z,23.5
2018-09-01T06:32:02.658Z,37.5
2018-09-01T06:32:52.911Z,40.6
2018-09-01T06:33:43.047Z,40.9
2018-09-01T06:34:32.840Z,41
2018-09-01T06:35:22.923Z,40.8
2018-09-01T06:36:12.696Z,40.3
2018-09-01T06:37:03.037Z,40
2018-09-01T06:37:53.089Z,39.9
2018-09-01T06:38:43.177Z,39.8
2018-09-01T06:39:33.294Z,39.8
2018-09-01T06:40:23.303Z,39.9
2018-09-01T06:41:12.813Z,40
2018-09-01T06:42:02.965Z,40.3
2018-09-01T06:42:53.577Z,40.6
2018-09-01T06:43:43.277Z,40.9
2018-09-01T06:44:33.332Z,41.4
2018-09-01T06:45:23.396Z,40.1
2018-09-01T06:46:13.471Z,41.4
2018-09-01T06:47:03.791Z,44.3
2018-09-01T06:47:53.864Z,45.1
2018-09-01T06:48:43.920Z,46.9
2018-09-01T06:49:34.007Z,47.9
2018-09-01T06:50:24.055Z,47.9
2018-09-01T06:51:13.844Z,47.7
2018-09-01T06:52:04.182Z,47.5
2018-09-01T06:52:54.251Z,47.6
2018-09-01T06:53:44.323Z,47.9
2018-09-01T06:54:34.119Z,48.3
2018-09-01T06:55:23.874Z,48.5
2018-09-01T06:56:14.224Z,48.7
2018-09-01T06:57:04.599Z,48.8
2018-09-01T06:57:54.634Z,48.9
2018-09-01T06:58:44.701Z,49.1
2018-09-01T06:59:34.442Z,49.2
2018-09-01T07:00:24.574Z,49.4
2018-09-01T07:01:14.915Z,49.6
2018-09-01T07:02:04.675Z,49.7
2018-09-01T07:02:55.041Z,49.8
2018-09-01T07:03:45.083Z,49.9
2018-09-01T07:04:35.156Z,50.1
2018-09-01T07:05:24.651Z,50.3
2018-09-01T07:06:15.300Z,50.3
2018-09-01T07:07:05.343Z,50.4
2018-09-01T07:07:55.408Z,50.6
2018-09-01T07:08:45.916Z,50.7
2018-09-01T07:09:35.509Z,50.9
2018-09-01T07:10:25.603Z,50.9
2018-09-01T07:11:15.668Z,51.1
2018-09-01T07:12:05.459Z,51.2
2018-09-01T07:12:55.853Z,51.3
2018-09-01T07:13:45.898Z,51.4
2018-09-01T07:14:35.953Z,51.6
2018-09-01T07:15:25.970Z,51.6
2018-09-01T07:16:16.071Z,51.8
2018-09-01T07:17:05.857Z,51.9
2018-09-01T07:17:56.209Z,52
2018-09-01T07:18:46.015Z,52.1
2018-09-01T07:19:36.315Z,52.3
2018-09-01T07:20:26.632Z,52.3
2018-09-01T07:21:16.460Z,52.4
2018-09-01T07:22:06.539Z,52.6
2018-09-01T07:22:56.605Z,52.6
2018-09-01T07:23:46.638Z,52.8
2018-09-01T07:24:36.421Z,52.9
2018-09-01T07:25:26.777Z,53
2018-09-01T07:26:16.876Z,53.1
2018-09-01T07:27:06.641Z,53.2
2018-09-01T07:27:56.972Z,53.3
2018-09-01T07:28:47.039Z,53.4
2018-09-01T07:29:37.099Z,53.6
2018-09-01T07:30:28.117Z,53.7
2018-09-01T07:31:18.696Z,53.8
2018-09-01T07:32:07.577Z,53.9
2018-09-01T07:32:57.376Z,54
2018-09-01T07:33:47.524Z,54.1
2018-09-01T07:34:37.505Z,54.3
2018-09-01T07:35:27.642Z,54.4
2018-09-01T07:36:17.419Z,54.5
2018-09-01T07:37:07.697Z,54.6
2018-09-01T07:37:57.746Z,54.8
2018-09-01T07:38:47.847Z,54.9
2018-09-01T07:39:37.884Z,55
2018-09-01T07:40:27.946Z,55.1
2018-09-01T07:41:17.734Z,55.2
2018-09-01T07:42:08.080Z,55.3
2018-09-01T07:42:58.141Z,55.4
2018-09-01T07:43:47.928Z,55.6
2018-09-01T07:44:38.258Z,55.7
2018-09-01T07:45:28.066Z,55.8
2018-09-01T07:46:18.136Z,55.9
2018-09-01T07:47:08.496Z,56.1
2018-09-01T07:47:58.522Z,56.2
2018-09-01T07:48:48.607Z,56.3
2018-09-01T07:49:38.390Z,56.4
2018-09-01T07:50:28.741Z,56.5
2018-09-01T07:51:18.797Z,56.6
2018-09-01T07:52:08.875Z,56.8
2018-09-01T07:52:59.168Z,56.9
2018-09-01T07:53:48.988Z,57
2018-09-01T07:54:39.340Z,57.1
2018-09-01T07:55:29.118Z,57.3
2018-09-01T07:56:19.157Z,57.4
2018-09-01T07:57:09.005Z,57.5
2018-09-01T07:57:59.313Z,57.6
2018-09-01T07:59:39.412Z,57.9
2018-09-01T08:00:29.760Z,58
2018-09-01T08:01:19.306Z,58.1
2018-09-01T08:02:09.369Z,58.3
2018-09-01T08:02:59.449Z,58.4
2018-09-01T08:03:49.778Z,58.5
2018-09-01T08:05:29.919Z,58.7
2018-09-01T08:06:19.970Z,58.8
2018-09-01T08:07:10.014Z,58.9
2018-09-01T08:08:00.112Z,59.1
2018-09-01T08:08:50.168Z,59.2
2018-09-01T08:09:39.960Z,59.3
2018-09-01T08:10:30.290Z,59.4
2018-09-01T08:11:20.090Z,59.6
2018-09-01T08:12:10.152Z,59.7
2018-09-01T08:13:00.570Z,59.8
2018-09-01T08:13:50.931Z,59.9
2018-09-01T08:14:41.603Z,60.1
2018-09-01T08:15:30.769Z,60.2
2018-09-01T08:16:22.300Z,60.3
2018-09-01T08:17:10.814Z,60.4
2018-09-01T08:18:00.880Z,60.5
2018-09-01T08:18:50.664Z,60.6
2018-09-01T08:19:41.269Z,60.8
2018-09-01T08:20:31.081Z,60.8
2018-09-01T08:21:21.168Z,60.9
2018-09-01T08:22:10.924Z,61.1
2018-09-01T08:23:01.262Z,61.2
2018-09-01T08:23:51.327Z,61.3
2018-09-01T08:24:41.137Z,61.4
2018-09-01T08:25:31.478Z,61.6
2018-09-01T08:26:21.533Z,61.6
2018-09-01T08:27:11.023Z,61.8
2018-09-01T08:28:01.690Z,61.9
2018-09-01T08:28:51.741Z,62
2018-09-01T08:29:41.230Z,62.1
2018-09-01T08:30:31.580Z,62.2
2018-09-01T08:31:21.918Z,62.3
2018-09-01T08:32:11.997Z,62.4
2018-09-01T08:33:02.049Z,62.6
2018-09-01T08:33:51.876Z,62.7
2018-09-01T08:34:42.188Z,62.8
2018-09-01T08:35:32.240Z,62.9
2018-09-01T08:36:22.030Z,62.9
2018-09-01T08:37:12.099Z,63.1
2018-09-01T08:38:02.440Z,63.1
2018-09-01T08:38:52.502Z,63.3
2018-09-01T08:39:42.569Z,63.3
2018-09-01T08:40:32.357Z,63.4
2018-09-01T08:41:22.702Z,63.5
2018-09-01T08:42:12.784Z,63.6
2018-09-01T08:43:02.554Z,63.7
2018-09-01T08:43:52.892Z,63.7
2018-09-01T08:44:43.027Z,63.8
2018-09-01T08:45:32.765Z,63.9
2018-09-01T08:46:22.833Z,63.9
2018-09-01T08:47:13.207Z,64
2018-09-01T08:48:02.957Z,64.1
2018-09-01T08:48:53.319Z,64.1
2018-09-01T08:49:43.357Z,64.3
2018-09-01T08:50:33.424Z,64.3
2018-09-01T08:51:23.491Z,64.4
2018-09-01T08:52:13.564Z,64.4
2018-09-01T08:53:03.342Z,64.6
2018-09-01T08:53:53.694Z,64.6
2018-09-01T08:54:43.204Z,64.7
2018-09-01T08:55:33.827Z,64.8
2018-09-01T08:56:24.060Z,64.8
2018-09-01T08:57:13.669Z,64.9
2018-09-01T08:58:04.011Z,64.9
2018-09-01T09:14:48.288Z,66.2
2018-09-01T09:15:38.098Z,66.3
2018-09-01T09:16:27.611Z,66.4
2018-09-01T09:17:17.688Z,66.4
2018-09-01T09:18:07.740Z,66.5
2018-09-01T09:18:58.088Z,66.6
2018-09-01T09:19:47.870Z,66.6
2018-09-01T09:20:39.099Z,66.6
2018-09-01T09:21:28.554Z,66.7
2018-09-01T09:22:18.113Z,66.8
2018-09-01T09:23:08.807Z,66.9
2018-09-01T09:23:58.715Z,67
2018-09-01T09:24:48.282Z,67.1
2018-09-01T09:25:38.557Z,67.1
2018-09-01T09:26:28.802Z,67.1
2018-09-01T09:27:19.139Z,67.3
2018-09-01T09:28:08.232Z,67.3
2018-09-01T09:28:58.759Z,67.4
2018-09-01T09:30:03.579Z,67.4
2018-09-01T09:30:39.031Z,67.6
2018-09-01T09:31:28.976Z,67.6
2018-09-01T09:32:19.371Z,67.7
2018-09-01T09:33:09.206Z,67.7
2018-09-01T09:33:59.233Z,67.8
2018-09-01T09:34:49.525Z,67.8
2018-09-01T09:36:29.900Z,67.9
2018-09-01T09:37:19.523Z,68
2018-09-01T09:38:09.648Z,68.1
2018-09-01T09:38:59.381Z,68.1
2018-09-01T09:39:49.936Z,68.2
2018-09-01T09:40:39.741Z,68.3
2018-09-01T09:41:30.262Z,68.3
2018-09-01T09:42:20.364Z,68.4
2018-09-01T09:43:09.975Z,68.4
2018-09-01T09:43:59.777Z,68.4
2018-09-01T09:44:50.339Z,68.6
2018-09-01T09:45:40.454Z,68.6
2018-09-01T09:47:20.319Z,68.8
2018-09-01T09:48:10.388Z,68.8
2018-09-01T09:49:00.435Z,68.9
2018-09-01T09:49:50.520Z,68.9
2018-09-01T09:50:54.943Z,68.9
2018-09-01T09:51:30.360Z,69.1
2018-09-01T09:52:20.945Z,69.1
2018-09-01T09:53:10.892Z,69.2
2018-09-01T09:54:00.835Z,69.3
2018-09-01T09:54:50.880Z,69.3
2018-09-01T09:55:40.955Z,69.4
2018-09-01T09:56:31.479Z,69.4
2018-09-01T09:57:21.088Z,69.5
2018-09-01T09:58:11.219Z,69.6
2018-09-01T09:59:00.938Z,69.6
2018-09-01T09:59:51.284Z,69.7
2018-09-01T10:00:41.361Z,69.8
2018-09-01T10:01:31.929Z,69.8
2018-09-01T10:02:21.194Z,69.9
2018-09-01T10:03:11.807Z,69.9
2018-09-01T10:04:01.645Z,69.9
2018-09-01T10:04:51.899Z,70
2018-09-01T10:05:41.924Z,70.1
2018-09-01T10:06:31.821Z,70.1
2018-09-01T10:07:22.090Z,70.3
2018-09-01T10:08:11.892Z,70.3
2018-09-01T10:09:02.030Z,70.3
2018-09-01T10:09:51.992Z,70.3
2018-09-01T10:10:42.144Z,70.4
2018-09-01T10:11:32.214Z,70.4
2018-09-01T10:12:22.278Z,70.5
2018-09-01T10:13:12.578Z,70.6
2018-09-01T10:14:02.390Z,70.6
2018-09-01T10:14:52.458Z,70.7
2018-09-01T10:15:42.671Z,70.8
2018-09-01T10:16:32.597Z,70.8
2018-09-01T10:17:22.676Z,70.8
2018-09-01T10:18:12.744Z,70.9
2018-09-01T10:19:02.526Z,70.9
2018-09-01T10:19:52.869Z,71
2018-09-01T10:20:43.124Z,71.1
2018-09-01T10:21:32.976Z,71.1
2018-09-01T10:22:22.766Z,71.2
2018-09-01T10:23:12.824Z,71.2
2018-09-01T10:24:17.837Z,71.3
2018-09-01T10:25:07.913Z,71.3
2018-09-01T10:25:43.300Z,71.4
2018-09-01T10:26:33.131Z,71.4
2018-09-01T10:27:23.442Z,71.5
2018-09-01T10:28:13.523Z,71.5
2018-09-01T10:29:03.295Z,71.6
2018-09-01T10:29:53.671Z,71.6
2018-09-01T10:30:58.358Z,71.7
2018-09-01T10:31:34.330Z,71.8
2018-09-01T10:32:23.563Z,71.8
2018-09-01T10:33:13.955Z,71.8
2018-09-01T10:34:04.997Z,71.9
2018-09-01T10:34:54.100Z,71.9
2018-09-01T10:35:44.000Z,72
2018-09-01T10:36:34.150Z,72
2018-09-01T10:37:24.230Z,72.1
2018-09-01T10:38:29.373Z,72.1
2018-09-01T10:39:04.353Z,72.2
2018-09-01T10:39:54.469Z,72.2
2018-09-01T10:40:43.937Z,72.3
2018-09-01T10:41:34.546Z,72.3
2018-09-01T10:42:24.627Z,72.3
2018-09-01T10:43:16.018Z,72.4
2018-09-01T10:44:04.738Z,72.4
2018-09-01T10:44:54.808Z,72.4
2018-09-01T10:45:45.680Z,72.6
2018-09-01T10:46:35.168Z,72.6
2018-09-01T10:47:25.010Z,72.6
2018-09-01T10:48:29.724Z,72.6
2018-09-01T10:49:04.812Z,72.7
2018-09-01T10:49:55.462Z,72.7
2018-09-01T10:50:45.266Z,72.8
2018-09-01T10:51:35.342Z,72.8
2018-09-01T10:52:40.051Z,72.8
2018-09-01T10:53:15.460Z,72.9
2018-09-01T10:54:05.750Z,72.9
2018-09-01T10:54:55.837Z,73
2018-09-01T10:55:45.660Z,73.1
2018-09-01T10:56:35.732Z,73.1
2018-09-01T10:57:26.034Z,73.1
2018-09-01T10:58:16.257Z,73.2
2018-09-01T10:59:07.186Z,73.3
2018-09-01T10:59:55.899Z,73.3
2018-09-01T11:00:46.012Z,73.3
2018-09-01T11:01:36.555Z,73.3
2018-09-01T11:02:26.171Z,73.4
2018-09-01T11:03:15.782Z,73.4
2018-09-01T11:04:06.319Z,73.4
2018-09-01T11:04:56.096Z,73.5
2018-09-01T11:05:46.253Z,73.5
2018-09-01T11:06:36.239Z,73.6
2018-09-01T11:07:26.989Z,73.6
2018-09-01T11:08:16.646Z,73.6
2018-09-01T11:09:56.503Z,73.8
2018-09-01T11:10:46.744Z,73.8
2018-09-01T11:11:36.626Z,73.8
2018-09-01T11:12:26.972Z,73.9
2018-09-01T11:13:16.773Z,73.9
2018-09-01T11:14:07.087Z,73.9
2018-09-01T11:14:56.842Z,73.9
2018-09-01T11:15:47.284Z,74
2018-09-01T11:16:37.454Z,74
2018-09-01T11:17:27.091Z,74.1
2018-09-01T11:18:17.814Z,74.1
2018-09-01T11:19:07.745Z,74.1
2018-09-01T11:19:57.788Z,74.1
2018-09-01T11:20:48.341Z,74.2
2018-09-01T11:21:37.827Z,74.2
2018-09-01T11:22:28.045Z,74.2
2018-09-01T11:23:17.539Z,74.2
2018-09-01T11:24:12.467Z,74.3
2018-09-01T11:25:03.054Z,74.3
2018-09-01T11:25:52.809Z,74.3
2018-09-01T11:26:42.892Z,74.3
2018-09-01T11:27:33.287Z,74.3
2018-09-01T11:28:23.224Z,74.4
2018-09-01T11:29:13.008Z,74.4
2018-09-01T11:30:02.636Z,74.4
2018-09-01T11:30:52.432Z,74.4
2018-09-01T11:32:33.124Z,74.5
2018-09-01T11:33:23.421Z,74.6
2018-09-01T11:34:13.283Z,74.6
2018-09-01T11:35:17.973Z,74.6
2018-09-01T11:35:53.143Z,74.7
2018-09-01T11:36:43.602Z,74.7
2018-09-01T11:37:33.498Z,74.7
2018-09-01T11:38:23.573Z,74.8
2018-09-01T11:39:14.055Z,74.8
2018-09-01T11:40:03.703Z,74.8
2018-09-01T11:40:53.765Z,74.8
2018-09-01T11:41:43.826Z,74.8
2018-09-01T11:42:33.372Z,74.9
2018-09-01T11:43:23.970Z,74.9
2018-09-01T11:44:13.760Z,74.9
2018-09-01T11:45:04.097Z,74.9
2018-09-01T11:45:53.865Z,74.9
2018-09-01T11:46:44.425Z,74.9
2018-09-01T11:47:34.035Z,74.9
2018-09-01T11:48:24.798Z,75
2018-09-01T11:49:15.120Z,75
2018-09-01T11:50:04.602Z,75.1
2018-09-01T11:50:55.004Z,75.1
2018-09-01T11:51:44.868Z,75.1
2018-09-01T11:52:34.694Z,75.1
2018-09-01T11:53:24.742Z,75.2
2018-09-01T11:54:29.470Z,75.2
2018-09-01T11:55:05.098Z,75.2
2018-09-01T11:55:54.655Z,75.3
2018-09-01T11:56:44.997Z,75.2
2018-09-01T11:57:35.075Z,75.3
2018-09-01T11:58:25.132Z,75.3
2018-09-01T11:59:30.097Z,75.3
2018-09-01T12:00:05.273Z,75.3
2018-09-01T12:01:46.029Z,75.4
2018-09-01T12:02:35.695Z,75.4
2018-09-01T12:03:25.852Z,75.4
2018-09-01T12:05:05.603Z,75.4
2018-09-01T12:05:55.731Z,75.4
2018-09-01T12:06:45.239Z,75.4
2018-09-01T12:07:35.588Z,75.4